• Join FlightAware (Why Join?)
  • Login
  • US Flag 
05:56AM EST


 

Airport Tracker/Info


-or-


 

Live Flight TrackerFlight Track Log ✈ ASH3732 ✈ 07-Jul-2013 ✈ KIAD - KMCI

Flight Track Log - Related Links

Times and Time Zones

All times are in EDT time to prevent confusion due to time zone crossing. See the ASH3732 flight status page for this flight to view local times or setup timezone preferences in your user account.

Time Position Orientation Groundspeed Altitude Reporting Facility
EDT Latitude Longitude Course Direction KTS MPH feet Rate Location/Type
08:32AM 38.9000 -77.4667 288° West 203 234 2,100  Level Potomac TRACON
08:33AM 38.8500 -77.5167 218° Southwest 238 274 4,300 2,340 Climbing Potomac TRACON
08:35AM 38.8119 -77.6831 254° West 269 310 9,000 2,160 Climbing Washington Center
08:36AM 38.8225 -77.7844 278° West 276 318 10,600 1,680 Climbing Washington Center
08:37AM 38.8308 -77.9019 275° West 308 354 12,500 1,860 Climbing Washington Center
08:38AM 38.8494 -78.1975 288° West  Level FlightAware Approximate
08:38AM 38.8389 -78.0194 275° West 330 380 14,500  Level Washington Center
08:39AM 38.8489 -78.1400 276° West 340 391 16,300 1,680 Climbing Washington Center
08:40AM 38.8525 -78.2625 272° West 346 398 17,900 1,440 Climbing Washington Center
08:41AM 38.8517 -78.3933 270° West 352 405 19,200 1,440 Climbing Washington Center
08:42AM 38.8506 -78.5239 269° West 358 412 20,800 1,200 Climbing Washington Center
08:43AM 38.8494 -78.6544 269° West 365 420 21,600 840 Climbing Washington Center
08:44AM 38.8458 -78.7956 268° West 382 440 22,600 1,080 Climbing Washington Center
08:45AM 38.8439 -78.9367 269° West 394 453 23,900 1,260 Climbing Washington Center
08:46AM 38.8419 -79.0778 269° West 399 459 25,200 1,140 Climbing Washington Center
08:47AM 38.8400 -79.2217 269° West 404 465 26,200 960 Climbing Washington Center
08:48AM 38.8397 -79.3631 270° West 404 465 27,200 720 Climbing Washington Center
08:49AM 38.8361 -79.4775 268° West 404 465 27,700 480 Climbing Washington Center
08:50AM 38.8344 -79.6478 269° West 424 488 28,200 540 Climbing Washington Center
08:51AM 38.8292 -79.8022 268° West 430 495 28,900 720 Climbing Washington Center
08:52AM 38.8244 -79.9347 267° West 431 496 29,600 900 Climbing Indianapolis Center
08:53AM 38.8214 -80.0903 269° West 436 502 30,600 840 Climbing Indianapolis Center
08:54AM 38.8158 -80.2428 267° West 429 494 31,400 840 Climbing Indianapolis Center
08:55AM 38.8117 -80.3967 268° West 433 498 32,400 900 Climbing Indianapolis Center
08:56AM 38.8081 -80.5469 268° West 423 487 33,300 780 Climbing Indianapolis Center
08:57AM 38.8025 -80.6983 267° West 425 489 34,000 300 Climbing Indianapolis Center
08:58AM 38.7981 -80.8542 268° West 434 499 34,000  Level Indianapolis Center
08:59AM 38.7936 -81.0142 268° West 449 517 34,000  Level Indianapolis Center
09:00AM 38.7878 -81.1725 267° West 447 514 34,000  Level Indianapolis Center
09:01AM 38.7817 -81.3606 268° West 443 510 34,000  Level Indianapolis Center
09:02AM 38.7750 -81.5131 267° West 442 509 34,000  Level Indianapolis Center
09:03AM 38.7686 -81.6706 267° West 441 507 34,000  Level Indianapolis Center
09:04AM 38.7633 -81.8222 267° West 445 512 34,000  Level Indianapolis Center
09:05AM 38.7572 -81.9772 267° West 439 505 34,000  Level Indianapolis Center
09:06AM 38.7511 -82.1347 267° West 443 510 34,000  Level Indianapolis Center
09:07AM 38.7431 -82.3211 267° West 440 506 34,000  Level Indianapolis Center
09:08AM 38.7372 -82.4781 267° West 441 507 34,000  Level Indianapolis Center
09:10AM 38.7308 -82.6331 267° West 438 504 34,000  Level Indianapolis Center
09:11AM 38.7250 -82.7900 267° West 439 505 34,000  Level Indianapolis Center
09:12AM 38.7172 -82.9447 266° West 437 503 34,000  Level Indianapolis Center
09:13AM 38.7106 -83.1000 267° West 437 503 34,000  Level Indianapolis Center
09:14AM 38.7022 -83.2631 266° West 440 506 34,000  Level Indianapolis Center
09:15AM 38.6953 -83.4194 267° West 436 502 34,000  Level Indianapolis Center
09:16AM 38.6878 -83.5761 267° West 437 503 34,000  Level Indianapolis Center
09:17AM 38.6803 -83.7331 267° West 437 503 34,000 780 Level Indianapolis Center
09:18AM 38.6728 -83.8878 266° West 432 497 35,600 960 Climbing Indianapolis Center
09:19AM 38.6644 -84.0339 266° West 414 476 36,000 180 Climbing Indianapolis Center
09:20AM 38.6564 -84.1828 266° West 414 476 36,000  Level Indianapolis Center
09:21AM 38.6506 -84.3367 267° West 427 491 36,000  Level Indianapolis Center
09:22AM 38.6619 -84.5219 275° West 442 509 36,000  Level Indianapolis Center
09:23AM 38.6700 -84.6578 274° West 443 510 36,000 -480 Level Indianapolis Center
09:24AM 38.6778 -84.8158 274° West 446 513 35,100 -1,320 Descending Indianapolis Center
09:25AM 38.6897 -85.0022 275° West 439 505 33,300 -1,140 Descending Indianapolis Center
09:26AM 38.6978 -85.1536 274° West 430 495 32,800 -660 Descending Indianapolis Center
09:27AM 38.7053 -85.3094 274° West 438 504 32,000 -420 Descending Indianapolis Center
09:28AM 38.7139 -85.4706 274° West 452 520 32,000  Level Indianapolis Center
09:29AM 38.7214 -85.6306 273° West 451 519 32,000  Level Indianapolis Center
09:30AM 38.7283 -85.7861 273° West 441 507 32,000  Level Indianapolis Center
09:31AM 38.7381 -85.9639 274° West 437 503 32,000  Level Indianapolis Center
09:32AM 38.7447 -86.1219 273° West 443 510 32,000  Level Indianapolis Center
09:33AM 38.7519 -86.2797 273° West 445 512 32,000  Level Indianapolis Center
09:34AM 38.7581 -86.4386 273° West 447 514 32,000  Level Indianapolis Center
09:35AM 38.7644 -86.5983 273° West 450 518 32,000  Level Indianapolis Center
09:36AM 38.7708 -86.7564 273° West 448 516 32,000  Level Indianapolis Center
09:37AM 38.7775 -86.9150 273° West 448 516 32,000  Level Indianapolis Center
09:38AM 38.7833 -87.0736 273° West 448 516 32,000  Level Indianapolis Center
09:39AM 38.7906 -87.2650 273° West 450 518 32,000  Level Indianapolis Center
09:40AM 38.7964 -87.4261 273° West 455 524 32,000  Level Indianapolis Center
09:41AM 38.8019 -87.5842 273° West 449 517 32,000  Level Indianapolis Center
09:42AM 38.8058 -87.7431 272° West 446 513 32,000  Level Indianapolis Center
09:43AM 38.8114 -87.8969 273° West 434 499 32,000  Level Indianapolis Center
09:44AM 38.8153 -88.0503 272° West 431 496 32,000  Level Indianapolis Center
09:45AM 38.8186 -88.1733 272° West 429 494 32,000  Level Kansas City Center
09:46AM 38.8225 -88.3278 272° West 432 497 32,000  Level Kansas City Center
09:47AM 38.8278 -88.4864 272° West 441 507 32,000  Level Kansas City Center
09:48AM 38.8306 -88.6342 271° West 444 511 32,000  Level Kansas City Center
09:49AM 38.8333 -88.7950 271° West 450 518 32,000  Level Kansas City Center
09:50AM 38.8381 -88.9947 272° West 451 519 32,000  Level Kansas City Center
09:51AM 38.8433 -89.1553 272° West 454 522 32,000  Level Kansas City Center
09:52AM 38.8461 -89.3142 271° West 448 516 32,000  Level Kansas City Center
09:53AM 38.8492 -89.4833 271° West 444 511 32,000  Level Kansas City Center
09:54AM 38.8514 -89.6403 271° West 443 510 32,000  Level Kansas City Center
09:55AM 38.8722 -89.7689 282° West 430 495 32,000  Level Kansas City Center
09:56AM 38.9225 -89.9383 291° West 426 490 32,000  Level Kansas City Center
09:57AM 38.9650 -90.0783 291° West 428 493 32,000  Level Kansas City Center
09:58AM 39.0072 -90.2200 291° West 429 494 32,000  Level Kansas City Center
09:59AM 39.0497 -90.3628 291° West 432 497 32,000  Level Kansas City Center
10:00AM 39.0917 -90.5061 291° West 434 499 32,000  Level Kansas City Center
10:02AM 39.1436 -90.6792 291° West 435 501 32,000  Level Kansas City Center
10:03AM 39.1864 -90.8236 291° West 434 499 32,000  Level Kansas City Center
10:04AM 39.2283 -90.9694 290° West 435 501 32,000  Level Kansas City Center
10:05AM 39.2703 -91.1172 290° West 438 504 32,000  Level Kansas City Center
10:06AM 39.3119 -91.2625 290° West 436 502 32,000  Level Kansas City Center
10:07AM 39.3528 -91.4083 290° West 434 499 32,000  Level Kansas City Center
10:08AM 39.3939 -91.5517 290° West 430 495 32,000  Level Kansas City Center
10:09AM 39.4417 -91.7219 290° West 429 494 32,000  Level Kansas City Center
10:10AM 39.4825 -91.8658 290° West 429 494 32,000  Level Kansas City Center
10:11AM 39.5236 -92.0083 291° West 426 490 32,000  Level Kansas City Center
10:12AM 39.5631 -92.1539 289° West 428 493 32,000  Level Kansas City Center
10:13AM 39.6031 -92.2997 290° West 431 496 32,000 -840 Level Kansas City Center
10:14AM 39.6517 -92.4747 290° West 432 497 30,300 -1,560 Descending Kansas City Center
10:15AM 39.6531 -92.6289 271° West 433 498 28,800 -1,620 Descending Kansas City Center
10:16AM 39.6497 -92.7811 268° West 426 490 27,000 -2,100 Descending Kansas City Center
10:17AM 39.6481 -92.9331 269° West 423 487 24,600 -2,340 Descending Kansas City Center
10:18AM 39.6456 -93.0789 269° West 415 478 22,300 -2,100 Descending Kansas City Center
10:19AM 39.6444 -93.2200 269° West 400 460 20,300 -2,040 Descending Kansas City Center
10:20AM 39.6400 -93.3775 268° West 373 429 18,200 -1,800 Descending Kansas City Center
10:21AM 39.6369 -93.5072 268° West 367 422 16,600 -1,560 Descending Kansas City Center
10:22AM 39.6350 -93.6308 269° West 352 405 15,100 -1,500 Descending Kansas City Center
10:23AM 39.6319 -93.7511 268° West 348 400 13,600 -1,680 Descending Kansas City Center
10:24AM 39.6253 -93.8903 266° West 347 399 11,700 -1,680 Descending Kansas City Center
10:25AM 39.5711 -93.9886 234° Southwest 347 399 10,200 -900 Descending Kansas City Center
10:26AM 39.5219 -94.0983 240° Southwest 319 367 9,900 -720 Descending Kansas City Center
10:27AM 39.5081 -94.1906 259° West 282 325 8,800 -1,320 Descending Kansas City Center
10:28AM 39.4931 -94.2831 258° West 243 280 7,300 -1,380 Descending Kansas City Center
10:29AM 39.4833 -94.3597 261° West 230 265 6,000 -1,140 Descending Kansas City Center
10:30AM 39.4700 -94.4469 259° West 224 258 5,000 -1,020 Descending Kansas City Center
10:31AM 39.4508 -94.5172 251° West 219 252 4,000 -840 Descending Kansas City Center
10:32AM 39.4314 -94.5847 250° West 214 246 3,400 -540 Descending Kansas City Center
10:33AM 39.4100 -94.6544 248° West 197 227 2,900 -540 Descending Kansas City Center
10:34AM 39.3853 -94.6906 228° Southwest 158 182 2,300 -660 Descending Kansas City Center
10:36AM 39.3511 -94.7131 207° Southwest 129 148 1,600 -600 Descending Kansas City Center
10:37AM 39.3142 -94.7253 194° South 127 146 1,100 -540 Descending Kansas City Center